sensor_id;sensor_type;location;lat;lon;timestamp;temperature;humidity
71563;DHT22;59391;52.504;13.438;2022-10-31T00:01:36;16.40;69.00
71563;DHT22;59391;52.504;13.438;2022-10-31T00:04:03;16.40;69.20
71563;DHT22;59391;52.504;13.438;2022-10-31T00:06:29;16.30;69.00
71563;DHT22;59391;52.504;13.438;2022-10-31T00:09:03;16.30;69.00
71563;DHT22;59391;52.504;13.438;2022-10-31T00:11:29;16.30;69.00
71563;DHT22;59391;52.504;13.438;2022-10-31T00:14:01;16.30;69.10
71563;DHT22;59391;52.504;13.438;2022-10-31T00:16:28;16.30;69.10
71563;DHT22;59391;52.504;13.438;2022-10-31T00:19:03;16.30;69.10
71563;DHT22;59391;52.504;13.438;2022-10-31T00:21:31;16.20;69.20
71563;DHT22;59391;52.504;13.438;2022-10-31T00:23:58;16.20;69.20
71563;DHT22;59391;52.504;13.438;2022-10-31T00:26:26;16.20;69.20
71563;DHT22;59391;52.504;13.438;2022-10-31T00:28:53;16.20;69.40
71563;DHT22;59391;52.504;13.438;2022-10-31T00:31:18;16.10;69.40
71563;DHT22;59391;52.504;13.438;2022-10-31T00:33:46;16.10;69.30
71563;DHT22;59391;52.504;13.438;2022-10-31T00:36:17;16.10;69.40
71563;DHT22;59391;52.504;13.438;2022-10-31T00:38:52;16.10;69.50
71563;DHT22;59391;52.504;13.438;2022-10-31T00:41:18;16.00;69.60
71563;DHT22;59391;52.504;13.438;2022-10-31T00:43:43;16.00;69.40
71563;DHT22;59391;52.504;13.438;2022-10-31T00:46:10;16.00;69.30
71563;DHT22;59391;52.504;13.438;2022-10-31T00:48:37;16.00;69.30
71563;DHT22;59391;52.504;13.438;2022-10-31T00:51:05;16.00;69.40
71563;DHT22;59391;52.504;13.438;2022-10-31T00:53:31;15.90;69.50
71563;DHT22;59391;52.504;13.438;2022-10-31T00:55:57;16.00;69.60
71563;DHT22;59391;52.504;13.438;2022-10-31T00:58:22;15.90;69.90
71563;DHT22;59391;52.504;13.438;2022-10-31T01:00:48;15.90;69.90
71563;DHT22;59391;52.504;13.438;2022-10-31T01:03:31;15.90;69.80
71563;DHT22;59391;52.504;13.438;2022-10-31T01:08:29;15.90;70.30
71563;DHT22;59391;52.504;13.438;2022-10-31T01:13:37;15.90;70.60
71563;DHT22;59391;52.504;13.438;2022-10-31T01:16:05;15.90;70.50
71563;DHT22;59391;52.504;13.438;2022-10-31T01:18:32;15.90;70.80
71563;DHT22;59391;52.504;13.438;2022-10-31T01:21:06;15.90;70.70
71563;DHT22;59391;52.504;13.438;2022-10-31T01:23:34;15.90;70.80
71563;DHT22;59391;52.504;13.438;2022-10-31T01:26:14;15.90;70.90
71563;DHT22;59391;52.504;13.438;2022-10-31T01:28:50;15.90;71.00
71563;DHT22;59391;52.504;13.438;2022-10-31T01:31:21;15.80;70.90
71563;DHT22;59391;52.504;13.438;2022-10-31T01:33:47;15.80;71.00
71563;DHT22;59391;52.504;13.438;2022-10-31T01:36:17;15.80;71.00
71563;DHT22;59391;52.504;13.438;2022-10-31T01:38:46;15.80;71.10
71563;DHT22;59391;52.504;13.438;2022-10-31T01:41:15;15.80;71.00
71563;DHT22;59391;52.504;13.438;2022-10-31T01:46:16;15.80;71.10
71563;DHT22;59391;52.504;13.438;2022-10-31T01:48:47;15.80;71.40
71563;DHT22;59391;52.504;13.438;2022-10-31T01:51:15;15.80;71.10
71563;DHT22;59391;52.504;13.438;2022-10-31T01:53:43;15.80;71.00
71563;DHT22;59391;52.504;13.438;2022-10-31T01:56:10;15.80;70.90
71563;DHT22;59391;52.504;13.438;2022-10-31T01:58:38;15.80;70.80
71563;DHT22;59391;52.504;13.438;2022-10-31T02:01:05;15.80;70.80
71563;DHT22;59391;52.504;13.438;2022-10-31T02:03:31;15.80;70.80
71563;DHT22;59391;52.504;13.438;2022-10-31T02:05:57;15.80;70.90
71563;DHT22;59391;52.504;13.438;2022-10-31T02:08:29;15.80;70.90
71563;DHT22;59391;52.504;13.438;2022-10-31T02:11:00;15.80;70.90
71563;DHT22;59391;52.504;13.438;2022-10-31T02:13:30;15.70;71.10
71563;DHT22;59391;52.504;13.438;2022-10-31T02:16:00;15.80;70.90
71563;DHT22;59391;52.504;13.438;2022-10-31T02:18:29;15.80;70.80
71563;DHT22;59391;52.504;13.438;2022-10-31T02:24:23;15.70;71.00
71563;DHT22;59391;52.504;13.438;2022-10-31T02:30:13;15.70;70.90
71563;DHT22;59391;52.504;13.438;2022-10-31T02:38:51;15.70;70.60
71563;DHT22;59391;52.504;13.438;2022-10-31T02:44:29;15.70;70.60
71563;DHT22;59391;52.504;13.438;2022-10-31T02:46:59;15.80;70.50
71563;DHT22;59391;52.504;13.438;2022-10-31T02:49:45;15.70;70.60
71563;DHT22;59391;52.504;13.438;2022-10-31T02:52:25;15.70;70.70
71563;DHT22;59391;52.504;13.438;2022-10-31T02:54:52;15.70;70.70
71563;DHT22;59391;52.504;13.438;2022-10-31T02:57:30;15.70;70.80
71563;DHT22;59391;52.504;13.438;2022-10-31T03:00:01;15.70;70.80
71563;DHT22;59391;52.504;13.438;2022-10-31T03:05:50;15.70;70.90
71563;DHT22;59391;52.504;13.438;2022-10-31T03:08:47;15.60;70.90
71563;DHT22;59391;52.504;13.438;2022-10-31T03:11:23;15.60;70.90
71563;DHT22;59391;52.504;13.438;2022-10-31T03:14:06;15.60;71.00
71563;DHT22;59391;52.504;13.438;2022-10-31T03:16:45;15.60;71.00
71563;DHT22;59391;52.504;13.438;2022-10-31T03:19:17;15.60;70.90
71563;DHT22;59391;52.504;13.438;2022-10-31T03:21:54;15.60;70.90
71563;DHT22;59391;52.504;13.438;2022-10-31T03:24:27;15.60;71.00
71563;DHT22;59391;52.504;13.438;2022-10-31T03:26:57;15.50;71.00
71563;DHT22;59391;52.504;13.438;2022-10-31T03:29:29;15.50;71.10
71563;DHT22;59391;52.504;13.438;2022-10-31T03:32:01;15.50;70.90
71563;DHT22;59391;52.504;13.438;2022-10-31T03:34:32;15.50;70.90
71563;DHT22;59391;52.504;13.438;2022-10-31T03:37:04;15.60;70.80
71563;DHT22;59391;52.504;13.438;2022-10-31T03:39:37;15.60;70.80
71563;DHT22;59391;52.504;13.438;2022-10-31T03:42:11;15.60;70.90
71563;DHT22;59391;52.504;13.438;2022-10-31T03:44:44;15.60;70.80
71563;DHT22;59391;52.504;13.438;2022-10-31T03:47:15;15.50;70.80
71563;DHT22;59391;52.504;13.438;2022-10-31T03:49:44;15.60;70.70
71563;DHT22;59391;52.504;13.438;2022-10-31T03:55:45;15.50;70.60
71563;DHT22;59391;52.504;13.438;2022-10-31T03:58:26;15.60;70.50
71563;DHT22;59391;52.504;13.438;2022-10-31T04:00:57;15.50;70.50
71563;DHT22;59391;52.504;13.438;2022-10-31T04:03:35;15.50;70.60
71563;DHT22;59391;52.504;13.438;2022-10-31T04:06:05;15.50;70.70
71563;DHT22;59391;52.504;13.438;2022-10-31T04:08:41;15.50;70.60
71563;DHT22;59391;52.504;13.438;2022-10-31T04:11:11;15.50;70.60
71563;DHT22;59391;52.504;13.438;2022-10-31T04:13:42;15.50;70.50
71563;DHT22;59391;52.504;13.438;2022-10-31T04:16:10;15.50;70.40
71563;DHT22;59391;52.504;13.438;2022-10-31T04:18:37;15.50;70.40
71563;DHT22;59391;52.504;13.438;2022-10-31T04:21:05;15.50;70.40
71563;DHT22;59391;52.504;13.438;2022-10-31T04:23:33;15.50;70.40
71563;DHT22;59391;52.504;13.438;2022-10-31T04:26:00;15.50;70.40
71563;DHT22;59391;52.504;13.438;2022-10-31T04:28:26;15.50;70.20
71563;DHT22;59391;52.504;13.438;2022-10-31T04:30:51;15.50;70.20
71563;DHT22;59391;52.504;13.438;2022-10-31T04:33:17;15.60;70.20
71563;DHT22;59391;52.504;13.438;2022-10-31T04:35:43;15.50;70.30
71563;DHT22;59391;52.504;13.438;2022-10-31T04:38:09;15.50;70.30
71563;DHT22;59391;52.504;13.438;2022-10-31T04:40:35;15.50;70.30
71563;DHT22;59391;52.504;13.438;2022-10-31T04:43:00;15.50;70.30
71563;DHT22;59391;52.504;13.438;2022-10-31T04:45:26;15.60;70.30
71563;DHT22;59391;52.504;13.438;2022-10-31T04:47:52;15.60;70.10
71563;DHT22;59391;52.504;13.438;2022-10-31T04:50:17;15.60;70.10
71563;DHT22;59391;52.504;13.438;2022-10-31T04:52:44;15.60;70.10
71563;DHT22;59391;52.504;13.438;2022-10-31T04:55:12;15.60;70.10
71563;DHT22;59391;52.504;13.438;2022-10-31T04:57:46;15.50;69.90
71563;DHT22;59391;52.504;13.438;2022-10-31T05:00:15;15.60;70.10
71563;DHT22;59391;52.504;13.438;2022-10-31T05:02:48;15.50;69.90
71563;DHT22;59391;52.504;13.438;2022-10-31T05:05:24;15.50;69.90
71563;DHT22;59391;52.504;13.438;2022-10-31T05:07:52;15.50;69.80
71563;DHT22;59391;52.504;13.438;2022-10-31T05:10:21;15.50;69.80
71563;DHT22;59391;52.504;13.438;2022-10-31T05:12:53;15.50;69.80
71563;DHT22;59391;52.504;13.438;2022-10-31T05:15:25;15.50;70.10
71563;DHT22;59391;52.504;13.438;2022-10-31T05:17:52;15.50;70.00
71563;DHT22;59391;52.504;13.438;2022-10-31T05:20:21;15.50;69.90
71563;DHT22;59391;52.504;13.438;2022-10-31T05:22:52;15.50;69.80
71563;DHT22;59391;52.504;13.438;2022-10-31T05:25:21;15.40;69.90
71563;DHT22;59391;52.504;13.438;2022-10-31T05:27:50;15.40;70.00
71563;DHT22;59391;52.504;13.438;2022-10-31T05:30:22;15.40;70.10
71563;DHT22;59391;52.504;13.438;2022-10-31T05:32:51;15.40;70.10
71563;DHT22;59391;52.504;13.438;2022-10-31T05:35:36;15.40;70.10
71563;DHT22;59391;52.504;13.438;2022-10-31T05:38:02;15.40;70.20
71563;DHT22;59391;52.504;13.438;2022-10-31T05:40:28;15.40;70.20
71563;DHT22;59391;52.504;13.438;2022-10-31T05:42:55;15.40;70.30
71563;DHT22;59391;52.504;13.438;2022-10-31T05:45:23;15.40;70.30
71563;DHT22;59391;52.504;13.438;2022-10-31T05:48:00;15.40;70.30
71563;DHT22;59391;52.504;13.438;2022-10-31T05:50:31;15.40;70.40
71563;DHT22;59391;52.504;13.438;2022-10-31T05:53:00;15.40;70.30
71563;DHT22;59391;52.504;13.438;2022-10-31T05:55:29;15.40;70.40
71563;DHT22;59391;52.504;13.438;2022-10-31T05:57:56;15.40;70.50
71563;DHT22;59391;52.504;13.438;2022-10-31T06:00:28;15.40;70.50
71563;DHT22;59391;52.504;13.438;2022-10-31T06:02:58;15.30;70.40
71563;DHT22;59391;52.504;13.438;2022-10-31T06:05:25;15.30;70.40
71563;DHT22;59391;52.504;13.438;2022-10-31T06:07:51;15.30;70.50
71563;DHT22;59391;52.504;13.438;2022-10-31T06:10:16;15.30;70.50
71563;DHT22;59391;52.504;13.438;2022-10-31T06:12:44;15.30;70.70
71563;DHT22;59391;52.504;13.438;2022-10-31T06:15:10;15.30;70.70
71563;DHT22;59391;52.504;13.438;2022-10-31T06:17:36;15.30;70.80
71563;DHT22;59391;52.504;13.438;2022-10-31T06:20:03;15.30;70.90
71563;DHT22;59391;52.504;13.438;2022-10-31T06:22:29;15.30;70.90
71563;DHT22;59391;52.504;13.438;2022-10-31T06:24:55;15.30;70.90
71563;DHT22;59391;52.504;13.438;2022-10-31T06:27:20;15.30;71.10
71563;DHT22;59391;52.504;13.438;2022-10-31T06:29:47;15.30;71.30
71563;DHT22;59391;52.504;13.438;2022-10-31T06:32:14;15.30;71.20
71563;DHT22;59391;52.504;13.438;2022-10-31T06:34:41;15.30;71.30
71563;DHT22;59391;52.504;13.438;2022-10-31T06:37:11;15.40;71.50
71563;DHT22;59391;52.504;13.438;2022-10-31T06:39:37;15.40;71.30
71563;DHT22;59391;52.504;13.438;2022-10-31T06:42:03;15.40;71.30
71563;DHT22;59391;52.504;13.438;2022-10-31T06:44:32;15.40;71.50
71563;DHT22;59391;52.504;13.438;2022-10-31T06:46:58;15.50;71.70
71563;DHT22;59391;52.504;13.438;2022-10-31T06:49:24;15.50;71.60
71563;DHT22;59391;52.504;13.438;2022-10-31T06:51:50;15.50;71.50
71563;DHT22;59391;52.504;13.438;2022-10-31T06:54:16;15.50;71.50
71563;DHT22;59391;52.504;13.438;2022-10-31T06:56:45;15.60;71.30
71563;DHT22;59391;52.504;13.438;2022-10-31T06:59:11;15.60;71.30
71563;DHT22;59391;52.504;13.438;2022-10-31T07:01:37;15.70;71.20
71563;DHT22;59391;52.504;13.438;2022-10-31T07:04:02;15.70;71.10
71563;DHT22;59391;52.504;13.438;2022-10-31T07:06:28;15.70;71.10
71563;DHT22;59391;52.504;13.438;2022-10-31T07:08:54;15.80;71.00
71563;DHT22;59391;52.504;13.438;2022-10-31T07:11:21;15.80;71.00
71563;DHT22;59391;52.504;13.438;2022-10-31T07:13:47;15.80;70.90
71563;DHT22;59391;52.504;13.438;2022-10-31T07:16:13;15.90;71.00
71563;DHT22;59391;52.504;13.438;2022-10-31T07:18:39;15.90;70.80
71563;DHT22;59391;52.504;13.438;2022-10-31T07:21:05;15.90;70.80
71563;DHT22;59391;52.504;13.438;2022-10-31T07:23:31;16.00;70.80
71563;DHT22;59391;52.504;13.438;2022-10-31T07:25:58;16.10;70.70
71563;DHT22;59391;52.504;13.438;2022-10-31T07:28:27;16.10;70.50
71563;DHT22;59391;52.504;13.438;2022-10-31T07:30:57;16.20;70.40
71563;DHT22;59391;52.504;13.438;2022-10-31T07:33:23;16.20;70.80
71563;DHT22;59391;52.504;13.438;2022-10-31T07:35:53;16.40;70.90
71563;DHT22;59391;52.504;13.438;2022-10-31T07:38:19;16.60;71.00
71563;DHT22;59391;52.504;13.438;2022-10-31T07:40:49;16.80;70.20
71563;DHT22;59391;52.504;13.438;2022-10-31T07:43:19;17.00;69.80
71563;DHT22;59391;52.504;13.438;2022-10-31T07:45:52;17.20;69.30
71563;DHT22;59391;52.504;13.438;2022-10-31T07:48:22;17.40;68.60
71563;DHT22;59391;52.504;13.438;2022-10-31T07:50:47;17.60;68.20
71563;DHT22;59391;52.504;13.438;2022-10-31T07:53:14;17.90;66.50
71563;DHT22;59391;52.504;13.438;2022-10-31T07:55:40;18.00;66.40
71563;DHT22;59391;52.504;13.438;2022-10-31T07:58:12;18.30;65.70
71563;DHT22;59391;52.504;13.438;2022-10-31T08:00:43;18.40;65.00
71563;DHT22;59391;52.504;13.438;2022-10-31T08:03:13;18.60;64.70
71563;DHT22;59391;52.504;13.438;2022-10-31T08:05:41;18.80;63.90
71563;DHT22;59391;52.504;13.438;2022-10-31T08:08:07;18.90;62.30
71563;DHT22;59391;52.504;13.438;2022-10-31T08:10:34;18.90;62.80
71563;DHT22;59391;52.504;13.438;2022-10-31T08:13:03;18.90;62.40
71563;DHT22;59391;52.504;13.438;2022-10-31T08:15:31;18.90;62.10
71563;DHT22;59391;52.504;13.438;2022-10-31T08:17:59;18.90;62.30
71563;DHT22;59391;52.504;13.438;2022-10-31T08:20:25;18.80;62.30
71563;DHT22;59391;52.504;13.438;2022-10-31T08:22:58;18.70;62.40
71563;DHT22;59391;52.504;13.438;2022-10-31T08:25:27;18.70;62.30
71563;DHT22;59391;52.504;13.438;2022-10-31T08:27:55;18.60;62.60
71563;DHT22;59391;52.504;13.438;2022-10-31T08:30:23;18.60;62.60
71563;DHT22;59391;52.504;13.438;2022-10-31T08:32:58;18.50;62.80
71563;DHT22;59391;52.504;13.438;2022-10-31T08:35:28;18.50;62.90
71563;DHT22;59391;52.504;13.438;2022-10-31T08:37:57;18.40;63.00
71563;DHT22;59391;52.504;13.438;2022-10-31T08:40:24;18.30;63.30
71563;DHT22;59391;52.504;13.438;2022-10-31T08:43:13;18.30;63.40
71563;DHT22;59391;52.504;13.438;2022-10-31T08:45:41;18.20;63.70
71563;DHT22;59391;52.504;13.438;2022-10-31T08:48:11;18.20;63.80
71563;DHT22;59391;52.504;13.438;2022-10-31T08:50:38;18.20;64.10
71563;DHT22;59391;52.504;13.438;2022-10-31T08:53:07;18.20;64.00
71563;DHT22;59391;52.504;13.438;2022-10-31T08:55:37;18.20;64.00
71563;DHT22;59391;52.504;13.438;2022-10-31T08:58:05;18.20;63.90
71563;DHT22;59391;52.504;13.438;2022-10-31T09:00:34;18.30;63.90
71563;DHT22;59391;52.504;13.438;2022-10-31T09:03:02;18.30;64.00
71563;DHT22;59391;52.504;13.438;2022-10-31T09:05:33;18.40;64.00
71563;DHT22;59391;52.504;13.438;2022-10-31T09:08:03;18.50;63.90
71563;DHT22;59391;52.504;13.438;2022-10-31T09:10:31;18.60;63.70
71563;DHT22;59391;52.504;13.438;2022-10-31T09:13:05;18.80;63.20
71563;DHT22;59391;52.504;13.438;2022-10-31T09:15:38;18.90;63.40
71563;DHT22;59391;52.504;13.438;2022-10-31T09:18:05;19.10;62.60
71563;DHT22;59391;52.504;13.438;2022-10-31T09:20:33;19.30;61.70
71563;DHT22;59391;52.504;13.438;2022-10-31T09:23:05;19.40;61.30
71563;DHT22;59391;52.504;13.438;2022-10-31T09:25:39;19.60;61.00
71563;DHT22;59391;52.504;13.438;2022-10-31T09:28:06;19.70;60.60
71563;DHT22;59391;52.504;13.438;2022-10-31T09:30:35;19.80;59.50
71563;DHT22;59391;52.504;13.438;2022-10-31T09:33:03;19.90;59.90
71563;DHT22;59391;52.504;13.438;2022-10-31T09:35:30;20.00;59.60
71563;DHT22;59391;52.504;13.438;2022-10-31T09:38:04;20.20;59.40
71563;DHT22;59391;52.504;13.438;2022-10-31T09:40:43;20.30;58.90
71563;DHT22;59391;52.504;13.438;2022-10-31T09:52:10;21.20;56.50
71563;DHT22;59391;52.504;13.438;2022-10-31T09:54:46;21.40;56.00
71563;DHT22;59391;52.504;13.438;2022-10-31T09:57:33;21.60;55.50
71563;DHT22;59391;52.504;13.438;2022-10-31T10:00:03;21.60;54.60
71563;DHT22;59391;52.504;13.438;2022-10-31T10:02:56;21.70;54.70
71563;DHT22;59391;52.504;13.438;2022-10-31T10:05:39;21.60;55.20
71563;DHT22;59391;52.504;13.438;2022-10-31T10:08:31;21.60;54.50
71563;DHT22;59391;52.504;13.438;2022-10-31T10:14:30;21.60;54.90
71563;DHT22;59391;52.504;13.438;2022-10-31T10:25:53;22.60;53.20
71563;DHT22;59391;52.504;13.438;2022-10-31T10:28:38;22.90;52.50
71563;DHT22;59391;52.504;13.438;2022-10-31T10:31:08;23.10;51.90
71563;DHT22;59391;52.504;13.438;2022-10-31T10:34:13;23.30;51.30
71563;DHT22;59391;52.504;13.438;2022-10-31T10:36:52;23.40;50.80
71563;DHT22;59391;52.504;13.438;2022-10-31T10:39:41;23.50;50.10
71563;DHT22;59391;52.504;13.438;2022-10-31T10:42:13;23.50;50.70
71563;DHT22;59391;52.504;13.438;2022-10-31T10:44:58;23.50;50.10
71563;DHT22;59391;52.504;13.438;2022-10-31T10:47:51;23.70;50.50
71563;DHT22;59391;52.504;13.438;2022-10-31T10:50:35;23.90;49.70
71563;DHT22;59391;52.504;13.438;2022-10-31T10:56:15;24.60;48.60
71563;DHT22;59391;52.504;13.438;2022-10-31T10:58:46;25.00;47.80
71563;DHT22;59391;52.504;13.438;2022-10-31T11:01:13;25.30;46.60
71563;DHT22;59391;52.504;13.438;2022-10-31T11:03:41;25.70;47.10
71563;DHT22;59391;52.504;13.438;2022-10-31T11:06:18;26.10;45.80
71563;DHT22;59391;52.504;13.438;2022-10-31T11:08:47;26.40;44.20
71563;DHT22;59391;52.504;13.438;2022-10-31T11:13:44;27.10;43.20
71563;DHT22;59391;52.504;13.438;2022-10-31T11:16:36;27.40;42.80
71563;DHT22;59391;52.504;13.438;2022-10-31T11:19:20;27.80;41.50
71563;DHT22;59391;52.504;13.438;2022-10-31T11:21:48;28.00;41.80
71563;DHT22;59391;52.504;13.438;2022-10-31T11:24:17;28.20;41.30
71563;DHT22;59391;52.504;13.438;2022-10-31T11:26:46;28.40;40.50
71563;DHT22;59391;52.504;13.438;2022-10-31T11:29:24;28.50;40.70
71563;DHT22;59391;52.504;13.438;2022-10-31T11:31:55;28.60;40.40
71563;DHT22;59391;52.504;13.438;2022-10-31T11:34:32;28.70;40.30
71563;DHT22;59391;52.504;13.438;2022-10-31T11:37:13;28.90;39.90
71563;DHT22;59391;52.504;13.438;2022-10-31T11:39:56;29.00;39.40
71563;DHT22;59391;52.504;13.438;2022-10-31T11:42:29;29.20;39.30
71563;DHT22;59391;52.504;13.438;2022-10-31T11:45:17;29.40;39.00
71563;DHT22;59391;52.504;13.438;2022-10-31T11:47:54;29.60;38.80
71563;DHT22;59391;52.504;13.438;2022-10-31T11:50:24;29.90;38.10
71563;DHT22;59391;52.504;13.438;2022-10-31T11:52:54;30.10;38.10
71563;DHT22;59391;52.504;13.438;2022-10-31T11:58:00;30.50;36.80
71563;DHT22;59391;52.504;13.438;2022-10-31T12:00:31;30.70;36.50
71563;DHT22;59391;52.504;13.438;2022-10-31T12:03:32;30.80;36.40
71563;DHT22;59391;52.504;13.438;2022-10-31T12:06:18;30.90;36.80
71563;DHT22;59391;52.504;13.438;2022-10-31T12:08:47;31.00;36.10
71563;DHT22;59391;52.504;13.438;2022-10-31T12:11:39;31.10;35.20
71563;DHT22;59391;52.504;13.438;2022-10-31T12:14:57;31.10;36.40
71563;DHT22;59391;52.504;13.438;2022-10-31T12:17:42;31.00;36.30
71563;DHT22;59391;52.504;13.438;2022-10-31T12:20:26;30.90;36.00
71563;DHT22;59391;52.504;13.438;2022-10-31T12:34:57;29.70;37.50
71563;DHT22;59391;52.504;13.438;2022-10-31T12:41:14;29.50;37.90
71563;DHT22;59391;52.504;13.438;2022-10-31T13:01:38;29.10;38.40
71563;DHT22;59391;52.504;13.438;2022-10-31T13:04:18;29.00;38.80
71563;DHT22;59391;52.504;13.438;2022-10-31T13:07:10;28.80;39.00
71563;DHT22;59391;52.504;13.438;2022-10-31T13:12:32;28.60;39.40
71563;DHT22;59391;52.504;13.438;2022-10-31T13:15:05;28.50;39.60
71563;DHT22;59391;52.504;13.438;2022-10-31T13:17:46;28.40;39.80
71563;DHT22;59391;52.504;13.438;2022-10-31T13:20:28;28.40;39.80
71563;DHT22;59391;52.504;13.438;2022-10-31T13:25:49;28.20;40.40
71563;DHT22;59391;52.504;13.438;2022-10-31T13:28:31;28.10;40.40
71563;DHT22;59391;52.504;13.438;2022-10-31T13:31:01;27.90;40.50
71563;DHT22;59391;52.504;13.438;2022-10-31T13:33:32;27.90;40.70
71563;DHT22;59391;52.504;13.438;2022-10-31T13:44:52;27.30;41.60
71563;DHT22;59391;52.504;13.438;2022-10-31T13:47:26;27.10;41.90
71563;DHT22;59391;52.504;13.438;2022-10-31T13:50:20;26.90;42.30
71563;DHT22;59391;52.504;13.438;2022-10-31T13:52:47;26.70;42.60
71563;DHT22;59391;52.504;13.438;2022-10-31T13:56:21;26.50;42.70
71563;DHT22;59391;52.504;13.438;2022-10-31T13:58:32;26.40;43.10
71563;DHT22;59391;52.504;13.438;2022-10-31T14:03:38;26.00;43.80
71563;DHT22;59391;52.504;13.438;2022-10-31T14:06:07;25.90;44.10
71563;DHT22;59391;52.504;13.438;2022-10-31T14:08:37;25.80;44.20
71563;DHT22;59391;52.504;13.438;2022-10-31T14:11:07;25.70;44.60
71563;DHT22;59391;52.504;13.438;2022-10-31T14:13:44;25.60;45.00
71563;DHT22;59391;52.504;13.438;2022-10-31T14:16:21;25.40;45.20
71563;DHT22;59391;52.504;13.438;2022-10-31T14:19:01;25.20;45.60
71563;DHT22;59391;52.504;13.438;2022-10-31T14:21:39;25.10;45.70
71563;DHT22;59391;52.504;13.438;2022-10-31T14:24:35;25.00;46.10
71563;DHT22;59391;52.504;13.438;2022-10-31T14:29:53;24.60;46.90
71563;DHT22;59391;52.504;13.438;2022-10-31T14:32:22;24.50;47.30
71563;DHT22;59391;52.504;13.438;2022-10-31T14:37:28;24.10;48.00
71563;DHT22;59391;52.504;13.438;2022-10-31T14:43:41;23.80;48.70
71563;DHT22;59391;52.504;13.438;2022-10-31T14:46:35;23.70;49.20
71563;DHT22;59391;52.504;13.438;2022-10-31T14:49:49;23.50;50.20
71563;DHT22;59391;52.504;13.438;2022-10-31T14:52:28;23.30;50.90
71563;DHT22;59391;52.504;13.438;2022-10-31T14:54:55;23.10;51.40
71563;DHT22;59391;52.504;13.438;2022-10-31T14:57:33;23.00;51.80
71563;DHT22;59391;52.504;13.438;2022-10-31T15:00:05;22.80;52.80
71563;DHT22;59391;52.504;13.438;2022-10-31T15:02:40;22.60;52.80
71563;DHT22;59391;52.504;13.438;2022-10-31T15:05:32;22.40;53.20
71563;DHT22;59391;52.504;13.438;2022-10-31T15:08:00;22.20;53.80
71563;DHT22;59391;52.504;13.438;2022-10-31T15:10:29;22.10;54.40
71563;DHT22;59391;52.504;13.438;2022-10-31T15:13:18;21.90;54.60
71563;DHT22;59391;52.504;13.438;2022-10-31T15:15:47;21.80;55.00
71563;DHT22;59391;52.504;13.438;2022-10-31T15:18:17;21.60;55.60
71563;DHT22;59391;52.504;13.438;2022-10-31T15:20:47;21.50;55.50
71563;DHT22;59391;52.504;13.438;2022-10-31T15:23:26;21.40;56.10
71563;DHT22;59391;52.504;13.438;2022-10-31T15:26:01;21.20;56.90
71563;DHT22;59391;52.504;13.438;2022-10-31T15:28:29;21.10;56.90
71563;DHT22;59391;52.504;13.438;2022-10-31T15:30:58;21.00;56.90
71563;DHT22;59391;52.504;13.438;2022-10-31T15:33:29;20.80;57.60
71563;DHT22;59391;52.504;13.438;2022-10-31T15:36:01;20.70;57.90
71563;DHT22;59391;52.504;13.438;2022-10-31T15:38:28;20.60;58.60
71563;DHT22;59391;52.504;13.438;2022-10-31T15:41:28;20.50;58.90
71563;DHT22;59391;52.504;13.438;2022-10-31T15:44:01;20.30;59.20
71563;DHT22;59391;52.504;13.438;2022-10-31T15:46:32;20.30;59.40
71563;DHT22;59391;52.504;13.438;2022-10-31T15:48:59;20.20;59.70
71563;DHT22;59391;52.504;13.438;2022-10-31T15:51:27;20.10;60.00
71563;DHT22;59391;52.504;13.438;2022-10-31T15:53:56;20.00;60.50
71563;DHT22;59391;52.504;13.438;2022-10-31T15:56:30;19.90;60.60
71563;DHT22;59391;52.504;13.438;2022-10-31T15:58:58;19.80;61.00
71563;DHT22;59391;52.504;13.438;2022-10-31T16:01:30;19.70;61.00
71563;DHT22;59391;52.504;13.438;2022-10-31T16:04:05;19.70;61.20
71563;DHT22;59391;52.504;13.438;2022-10-31T16:07:15;19.60;61.70
71563;DHT22;59391;52.504;13.438;2022-10-31T16:09:55;19.50;62.10
71563;DHT22;59391;52.504;13.438;2022-10-31T16:12:24;19.40;62.40
71563;DHT22;59391;52.504;13.438;2022-10-31T16:14:56;19.40;62.50
71563;DHT22;59391;52.504;13.438;2022-10-31T16:17:24;19.30;62.50
71563;DHT22;59391;52.504;13.438;2022-10-31T16:20:04;19.30;62.50
71563;DHT22;59391;52.504;13.438;2022-10-31T16:22:35;19.20;63.30
71563;DHT22;59391;52.504;13.438;2022-10-31T16:25:15;19.20;63.00
71563;DHT22;59391;52.504;13.438;2022-10-31T16:27:52;19.10;63.70
71563;DHT22;59391;52.504;13.438;2022-10-31T16:30:37;19.10;63.70
71563;DHT22;59391;52.504;13.438;2022-10-31T16:33:20;19.00;63.70
71563;DHT22;59391;52.504;13.438;2022-10-31T16:35:46;18.90;64.10
71563;DHT22;59391;52.504;13.438;2022-10-31T16:38:13;18.90;64.10
71563;DHT22;59391;52.504;13.438;2022-10-31T16:40:39;18.90;64.30
71563;DHT22;59391;52.504;13.438;2022-10-31T16:43:09;18.80;64.50
71563;DHT22;59391;52.504;13.438;2022-10-31T16:45:43;18.80;64.60
71563;DHT22;59391;52.504;13.438;2022-10-31T16:48:15;18.70;64.90
71563;DHT22;59391;52.504;13.438;2022-10-31T16:50:44;18.70;64.90
71563;DHT22;59391;52.504;13.438;2022-10-31T16:53:13;18.70;64.80
71563;DHT22;59391;52.504;13.438;2022-10-31T16:55:45;18.60;65.10
71563;DHT22;59391;52.504;13.438;2022-10-31T16:58:24;18.60;65.10
71563;DHT22;59391;52.504;13.438;2022-10-31T17:00:53;18.60;65.10
71563;DHT22;59391;52.504;13.438;2022-10-31T17:03:19;18.60;65.30
71563;DHT22;59391;52.504;13.438;2022-10-31T17:05:45;18.50;65.50
71563;DHT22;59391;52.504;13.438;2022-10-31T17:08:11;18.50;65.60
71563;DHT22;59391;52.504;13.438;2022-10-31T17:10:38;18.40;65.70
71563;DHT22;59391;52.504;13.438;2022-10-31T17:13:07;18.40;65.90
71563;DHT22;59391;52.504;13.438;2022-10-31T17:15:40;18.40;66.10
71563;DHT22;59391;52.504;13.438;2022-10-31T17:18:13;18.30;66.20
71563;DHT22;59391;52.504;13.438;2022-10-31T17:20:41;18.30;66.40
71563;DHT22;59391;52.504;13.438;2022-10-31T17:23:13;18.30;66.40
71563;DHT22;59391;52.504;13.438;2022-10-31T17:25:40;18.30;66.60
71563;DHT22;59391;52.504;13.438;2022-10-31T17:28:13;18.20;66.70
71563;DHT22;59391;52.504;13.438;2022-10-31T17:30:42;18.20;66.60
71563;DHT22;59391;52.504;13.438;2022-10-31T17:33:12;18.20;66.50
71563;DHT22;59391;52.504;13.438;2022-10-31T17:35:40;18.20;66.80
71563;DHT22;59391;52.504;13.438;2022-10-31T17:38:06;18.10;67.00
71563;DHT22;59391;52.504;13.438;2022-10-31T17:40:32;18.10;67.10
71563;DHT22;59391;52.504;13.438;2022-10-31T17:42:58;18.10;67.00
71563;DHT22;59391;52.504;13.438;2022-10-31T17:45:25;18.00;67.10